createdAt,value
2022-10-03T00:00:02.078Z,0.00
2022-10-03T00:01:02.048Z,0.00
2022-10-03T00:02:02.080Z,0.00
2022-10-03T00:03:02.112Z,0.00
2022-10-03T00:04:02.017Z,0.00
2022-10-03T00:05:02.013Z,0.00
2022-10-03T00:06:01.980Z,0.00
2022-10-03T00:07:01.971Z,0.00
2022-10-03T00:08:01.964Z,0.00
2022-10-03T00:09:01.954Z,0.00
2022-10-03T00:10:01.949Z,0.00
2022-10-03T00:11:01.924Z,0.00
2022-10-03T00:12:01.914Z,0.00
2022-10-03T00:13:01.909Z,0.00
2022-10-03T00:14:01.899Z,0.00
2022-10-03T00:15:01.924Z,0.00
2022-10-03T00:16:01.981Z,0.00
2022-10-03T00:17:01.860Z,0.00
2022-10-03T00:18:01.851Z,0.00
2022-10-03T00:19:01.844Z,0.00
2022-10-03T00:20:01.825Z,0.00
2022-10-03T00:21:01.831Z,0.00
2022-10-03T00:22:01.807Z,0.00
2022-10-03T00:23:01.801Z,0.00
2022-10-03T00:24:01.798Z,0.00
2022-10-03T00:25:01.773Z,0.00
2022-10-03T00:26:01.776Z,0.00
2022-10-03T00:27:01.750Z,0.00
2022-10-03T00:28:01.775Z,0.00
2022-10-03T00:29:01.720Z,0.00
2022-10-03T00:30:01.714Z,0.00
2022-10-03T00:31:01.941Z,0.00
2022-10-03T00:32:01.709Z,0.00
2022-10-03T00:33:01.687Z,0.00
2022-10-03T00:34:01.666Z,0.00
2022-10-03T00:35:01.660Z,0.00
2022-10-03T00:36:01.662Z,0.00
2022-10-03T00:37:01.635Z,0.00
2022-10-03T00:38:01.624Z,0.00
2022-10-03T00:39:01.612Z,0.00
2022-10-03T00:40:01.605Z,0.00
2022-10-03T00:41:01.614Z,0.00
2022-10-03T00:42:01.573Z,0.00
2022-10-03T00:43:01.560Z,0.00
2022-10-03T00:44:01.550Z,0.00
2022-10-03T00:45:01.541Z,0.00
2022-10-03T00:46:01.545Z,0.00
2022-10-03T00:47:01.597Z,0.00
2022-10-03T00:48:01.511Z,0.00
2022-10-03T00:49:01.499Z,0.00
2022-10-03T00:50:01.482Z,0.00
2022-10-03T00:51:01.506Z,0.00
2022-10-03T00:52:01.460Z,0.00
2022-10-03T00:53:01.455Z,0.00
2022-10-03T00:54:01.443Z,0.00
2022-10-03T00:55:01.437Z,0.00
2022-10-03T00:56:01.419Z,0.00
2022-10-03T00:57:01.423Z,0.00
2022-10-03T00:58:01.401Z,0.00
2022-10-03T00:59:01.387Z,0.00
2022-10-03T01:00:01.373Z,0.00
2022-10-03T01:01:01.440Z,0.00
2022-10-03T01:02:01.387Z,0.00
2022-10-03T01:03:01.463Z,0.00
2022-10-03T01:04:01.327Z,0.00
2022-10-03T01:05:01.319Z,0.00
2022-10-03T01:06:01.307Z,0.00
2022-10-03T01:07:01.309Z,0.00
2022-10-03T01:08:01.279Z,0.00
2022-10-03T01:09:01.273Z,0.00
2022-10-03T01:10:01.261Z,0.00
2022-10-03T01:11:01.250Z,0.00
2022-10-03T01:12:01.242Z,0.00
2022-10-03T01:13:01.230Z,0.00
2022-10-03T01:14:01.207Z,0.00
2022-10-03T01:15:01.203Z,0.00
2022-10-03T01:16:01.286Z,0.00
2022-10-03T01:17:01.197Z,0.00
2022-10-03T01:18:01.168Z,0.00
2022-10-03T01:19:01.184Z,0.00
2022-10-03T01:20:01.150Z,0.00
2022-10-03T01:21:01.154Z,0.00
2022-10-03T01:22:01.140Z,0.00
2022-10-03T01:23:01.113Z,0.00
2022-10-03T01:24:01.104Z,0.00
2022-10-03T01:25:01.091Z,0.00
2022-10-03T01:26:01.072Z,0.00
2022-10-03T01:27:01.079Z,0.00
2022-10-03T01:28:01.126Z,0.00
2022-10-03T01:29:01.045Z,0.00
2022-10-03T01:30:01.034Z,0.00
2022-10-03T01:31:01.084Z,0.00
2022-10-03T01:32:01.020Z,0.00
2022-10-03T01:33:01.000Z,0.00
2022-10-03T01:34:00.989Z,0.00
2022-10-03T01:35:00.993Z,0.00
2022-10-03T01:36:00.966Z,0.00
2022-10-03T01:37:00.969Z,0.00
2022-10-03T01:38:00.939Z,0.00
2022-10-03T01:39:00.927Z,0.00
2022-10-03T01:40:00.923Z,0.00
2022-10-03T01:41:00.912Z,0.00
2022-10-03T01:42:00.908Z,0.00
2022-10-03T01:43:00.880Z,0.00
2022-10-03T01:44:00.870Z,0.00
2022-10-03T01:45:00.857Z,0.00
2022-10-03T01:46:00.853Z,0.00
2022-10-03T01:47:00.866Z,0.00
2022-10-03T01:48:00.822Z,0.00
2022-10-03T01:49:00.823Z,0.00
2022-10-03T01:50:00.813Z,0.00
2022-10-03T01:51:00.811Z,0.00
2022-10-03T01:52:00.786Z,0.00
2022-10-03T01:53:00.780Z,0.00
2022-10-03T01:54:00.756Z,0.00
2022-10-03T01:55:00.751Z,0.00
2022-10-03T01:56:00.732Z,0.00
2022-10-03T01:57:00.722Z,0.00
2022-10-03T01:58:00.725Z,0.00
2022-10-03T01:59:00.707Z,0.00
2022-10-03T02:00:00.687Z,0.00
2022-10-03T02:01:00.765Z,0.00
2022-10-03T02:02:00.707Z,0.00
2022-10-03T02:03:00.665Z,0.00
2022-10-03T02:04:00.639Z,0.00
2022-10-03T02:05:00.636Z,0.00
2022-10-03T02:06:00.635Z,0.00
2022-10-03T02:07:00.643Z,0.00
2022-10-03T02:08:00.613Z,0.00
2022-10-03T02:09:00.672Z,0.00
2022-10-03T02:10:00.571Z,0.00
2022-10-03T02:11:00.574Z,0.00
2022-10-03T02:12:00.559Z,0.00
2022-10-03T02:13:00.566Z,0.00
2022-10-03T02:14:00.532Z,0.00
2022-10-03T02:15:00.523Z,0.00
2022-10-03T02:16:00.542Z,0.00
2022-10-03T02:17:00.502Z,0.00
2022-10-03T02:18:00.505Z,0.00
2022-10-03T02:19:00.478Z,0.00
2022-10-03T02:20:00.459Z,0.00
2022-10-03T02:21:00.450Z,0.00
2022-10-03T02:22:00.439Z,0.00
2022-10-03T02:23:00.459Z,0.00
2022-10-03T02:24:00.422Z,0.00
2022-10-03T02:25:00.412Z,0.00
2022-10-03T02:26:00.398Z,0.00
2022-10-03T02:27:00.378Z,0.00
2022-10-03T02:28:00.445Z,0.00
2022-10-03T02:29:00.357Z,0.00
2022-10-03T02:30:00.344Z,0.00
2022-10-03T02:31:00.333Z,0.00
2022-10-03T02:32:00.356Z,0.00
2022-10-03T02:33:00.336Z,0.00
2022-10-03T02:34:00.308Z,0.00
2022-10-03T02:35:00.295Z,0.00
2022-10-03T02:36:00.276Z,0.00
2022-10-03T02:37:00.267Z,0.00
2022-10-03T02:38:00.273Z,0.00
2022-10-03T02:39:00.270Z,0.00
2022-10-03T02:40:00.233Z,0.00
2022-10-03T02:41:00.219Z,0.00
2022-10-03T02:42:00.207Z,0.00
2022-10-03T02:43:00.210Z,0.00
2022-10-03T02:44:00.187Z,0.00
2022-10-03T02:45:00.180Z,0.00
2022-10-03T02:46:00.250Z,0.00
2022-10-03T02:47:00.149Z,0.00
2022-10-03T02:48:27.099Z,0.00
2022-10-03T02:49:01.134Z,0.00
2022-10-03T02:50:00.144Z,0.00
2022-10-03T02:51:00.104Z,0.00
2022-10-03T02:52:00.110Z,0.00
2022-10-03T02:53:00.098Z,0.00
2022-10-03T02:54:00.090Z,0.00
2022-10-03T02:55:00.114Z,0.00
2022-10-03T02:56:00.060Z,0.00
2022-10-03T02:57:00.035Z,0.00
2022-10-03T02:58:00.036Z,0.00
2022-10-03T02:59:00.021Z,0.00
2022-10-03T03:00:00.007Z,0.00
2022-10-03T03:01:00.080Z,0.00
2022-10-03T03:02:00.061Z,0.00
2022-10-03T03:02:59.980Z,0.00
2022-10-03T03:03:59.962Z,0.00
2022-10-03T03:04:59.952Z,0.00
2022-10-03T03:05:59.943Z,0.00
2022-10-03T03:06:59.923Z,0.00
2022-10-03T03:07:59.933Z,0.00
2022-10-03T03:08:59.898Z,0.00
2022-10-03T03:09:59.894Z,0.00
2022-10-03T03:10:59.913Z,0.00
2022-10-03T03:11:59.864Z,0.00
2022-10-03T03:12:59.870Z,0.00
2022-10-03T03:13:59.841Z,0.00
2022-10-03T03:14:59.837Z,0.00
2022-10-03T03:15:59.899Z,0.00
2022-10-03T03:16:59.813Z,0.00
2022-10-03T03:17:59.810Z,0.00
2022-10-03T03:18:59.784Z,0.00
2022-10-03T03:19:59.781Z,0.00
2022-10-03T03:20:59.772Z,0.00
2022-10-03T03:21:59.751Z,0.00
2022-10-03T03:22:59.759Z,0.00
2022-10-03T03:23:59.748Z,0.00
2022-10-03T03:24:59.725Z,0.00
2022-10-03T03:25:59.713Z,0.00
2022-10-03T03:26:59.814Z,0.00
2022-10-03T03:27:59.821Z,0.00
2022-10-03T03:28:59.671Z,0.00
2022-10-03T03:29:59.676Z,0.00
2022-10-03T03:30:59.654Z,0.00
2022-10-03T03:31:59.761Z,0.00
2022-10-03T03:32:59.650Z,0.00
2022-10-03T03:33:59.641Z,0.00
2022-10-03T03:34:59.609Z,0.00
2022-10-03T03:35:59.597Z,0.00
2022-10-03T03:36:59.586Z,0.00
2022-10-03T03:37:59.603Z,0.00
2022-10-03T03:38:59.566Z,0.00
2022-10-03T06:45:12.705Z,1744.00
2022-10-03T06:46:12.743Z,1668.00
2022-10-03T06:47:12.649Z,1736.00
2022-10-03T06:48:12.643Z,1584.00
2022-10-03T06:49:12.623Z,1636.00
2022-10-03T06:50:12.614Z,1576.00
2022-10-03T06:51:12.616Z,1404.00
2022-10-03T06:52:12.607Z,1344.00
2022-10-03T06:53:12.581Z,1264.00
2022-10-03T06:54:12.577Z,1124.00
2022-10-03T06:55:12.566Z,1032.00
2022-10-03T06:56:12.559Z,1052.00
2022-10-03T06:57:12.540Z,1212.00
2022-10-03T06:58:12.523Z,1352.00
2022-10-03T06:59:12.510Z,1388.00
2022-10-03T07:00:12.511Z,1588.00
2022-10-03T07:01:12.567Z,1548.00
2022-10-03T07:02:12.518Z,1364.00
2022-10-03T07:03:12.474Z,1240.00
2022-10-03T07:04:12.456Z,1164.00
2022-10-03T07:05:12.450Z,1200.00
2022-10-03T07:06:12.449Z,1172.00
2022-10-03T07:07:12.433Z,1048.00
2022-10-03T07:08:12.430Z,956.00
2022-10-03T07:09:12.407Z,980.00
2022-10-03T07:10:12.399Z,936.00
2022-10-03T07:11:12.402Z,948.00
2022-10-03T07:12:14.361Z,972.00
2022-10-03T07:13:12.360Z,1024.00
2022-10-03T07:14:12.367Z,1104.00
2022-10-03T07:15:12.336Z,1276.00
2022-10-03T07:16:26.634Z,1292.00
2022-10-03T07:17:13.357Z,1300.00
2022-10-03T07:18:12.319Z,1312.00
2022-10-03T07:19:12.301Z,1324.00
2022-10-03T07:20:12.291Z,1360.00
2022-10-03T07:21:16.597Z,1396.00
2022-10-03T07:22:12.263Z,1432.00
2022-10-03T07:23:12.261Z,1464.00
2022-10-03T07:24:12.232Z,1472.00
2022-10-03T07:25:12.238Z,1500.00
2022-10-03T07:26:12.219Z,1520.00
2022-10-03T07:27:12.206Z,1536.00
2022-10-03T07:28:12.235Z,1536.00
2022-10-03T07:29:12.194Z,1516.00
2022-10-03T07:30:12.172Z,1504.00
2022-10-03T07:31:12.224Z,1508.00
2022-10-03T07:32:12.147Z,1524.00
2022-10-03T07:33:12.156Z,1532.00
2022-10-03T07:34:12.120Z,1532.00
2022-10-03T07:35:12.114Z,1540.00
2022-10-03T07:36:12.113Z,1560.00
2022-10-03T07:37:12.093Z,1584.00
2022-10-03T07:38:12.083Z,1624.00
2022-10-03T07:39:12.065Z,1664.00
2022-10-03T07:40:12.053Z,1756.00
2022-10-03T07:41:12.072Z,1804.00
2022-10-03T07:42:12.054Z,1832.00
2022-10-03T07:43:12.021Z,1884.00
2022-10-03T07:44:12.015Z,1932.00
2022-10-03T07:45:12.003Z,1980.00
2022-10-03T07:46:12.048Z,2032.00
2022-10-03T07:47:11.995Z,2096.00
2022-10-03T07:48:11.988Z,2136.00
2022-10-03T07:49:16.230Z,2160.00
2022-10-03T07:50:12.950Z,2276.00
2022-10-03T07:51:11.931Z,2416.00
2022-10-03T07:52:11.959Z,2440.00
2022-10-03T07:53:11.922Z,2548.00
2022-10-03T07:54:11.895Z,2728.00
2022-10-03T07:55:11.889Z,2760.00
2022-10-03T07:56:11.879Z,2808.00
2022-10-03T07:57:11.872Z,3048.00
2022-10-03T07:58:11.890Z,3372.00
2022-10-03T07:59:11.850Z,3852.00
2022-10-03T08:00:11.828Z,4168.00
2022-10-03T08:01:11.820Z,4428.00
2022-10-03T08:02:11.804Z,4820.00
2022-10-03T08:03:11.958Z,5088.00
2022-10-03T08:04:11.780Z,5156.00
2022-10-03T08:05:11.807Z,5184.00
2022-10-03T08:06:11.768Z,4776.00
2022-10-03T08:07:11.751Z,4880.00
2022-10-03T08:08:11.751Z,4352.00
2022-10-03T08:09:11.761Z,3888.00
2022-10-03T08:10:11.715Z,3420.00
2022-10-03T08:11:11.704Z,3300.00
2022-10-03T08:12:11.701Z,3096.00
2022-10-03T08:13:11.686Z,3268.00
2022-10-03T08:14:11.677Z,2748.00
2022-10-03T08:15:11.665Z,2764.00
2022-10-03T08:16:11.707Z,2624.00
2022-10-03T08:17:11.640Z,2616.00
2022-10-03T08:18:11.641Z,2692.00
2022-10-03T08:19:11.618Z,2756.00
2022-10-03T08:20:11.603Z,2516.00
2022-10-03T08:21:11.714Z,2720.00
2022-10-03T08:22:11.579Z,3016.00
2022-10-03T08:23:11.579Z,2576.00
2022-10-03T08:24:11.562Z,2788.00
2022-10-03T08:25:11.552Z,2692.00
2022-10-03T08:26:11.534Z,3296.00
2022-10-03T08:27:11.524Z,3104.00
2022-10-03T08:28:11.636Z,2704.00
2022-10-03T08:29:11.507Z,2888.00
2022-10-03T08:30:11.491Z,3116.00
2022-10-03T08:31:11.536Z,3204.00
2022-10-03T08:32:11.475Z,3688.00
2022-10-03T08:33:11.467Z,3876.00
2022-10-03T08:34:11.445Z,4168.00
2022-10-03T08:35:11.440Z,4244.00
2022-10-03T08:36:11.445Z,3852.00
2022-10-03T08:37:11.434Z,4080.00
2022-10-03T08:38:11.414Z,5056.00
2022-10-03T08:39:11.398Z,5376.00
2022-10-03T08:40:11.375Z,5664.00
2022-10-03T08:41:11.373Z,6232.00
2022-10-03T08:42:11.354Z,6484.00
2022-10-03T08:43:11.359Z,6312.00
2022-10-03T08:44:11.340Z,6024.00
2022-10-03T08:45:11.322Z,6360.00
2022-10-03T08:46:11.367Z,6756.00
2022-10-03T08:47:11.309Z,6724.00
2022-10-03T08:48:11.305Z,7960.00
2022-10-03T08:49:11.282Z,8872.00
2022-10-03T08:50:11.268Z,9216.00
2022-10-03T08:51:11.276Z,9600.00
2022-10-03T08:52:11.248Z,10084.00
2022-10-03T08:53:11.273Z,9384.00
2022-10-03T08:54:11.228Z,9500.00
2022-10-03T08:55:11.228Z,6912.00
2022-10-03T08:56:11.204Z,5676.00
2022-10-03T08:57:11.193Z,5580.00
2022-10-03T08:58:11.195Z,5712.00
2022-10-03T08:59:11.165Z,5580.00
2022-10-03T09:00:11.153Z,5412.00
2022-10-03T09:01:11.209Z,5556.00
2022-10-03T09:02:11.281Z,5876.00
2022-10-03T09:03:32.579Z,5732.00
2022-10-03T09:04:12.108Z,5088.00
2022-10-03T09:05:11.103Z,4432.00
2022-10-03T09:06:11.090Z,4228.00
2022-10-03T09:07:19.219Z,4456.00
2022-10-03T09:08:12.077Z,4640.00
2022-10-03T09:09:11.083Z,4864.00
2022-10-03T09:10:11.049Z,5432.00
2022-10-03T09:11:11.040Z,5684.00
2022-10-03T09:12:11.027Z,6340.00
2022-10-03T09:13:11.029Z,5864.00
2022-10-03T09:14:11.000Z,5656.00
2022-10-03T09:15:10.991Z,6072.00
2022-10-03T09:16:14.853Z,6196.00
2022-10-03T09:17:11.966Z,5888.00
2022-10-03T09:18:10.969Z,5320.00
2022-10-03T09:19:10.956Z,5396.00
2022-10-03T09:20:10.930Z,5732.00
2022-10-03T09:21:10.921Z,5480.00
2022-10-03T09:22:10.911Z,5288.00
2022-10-03T09:23:10.924Z,6600.00
2022-10-03T09:24:10.896Z,7476.00
2022-10-03T09:25:10.923Z,6456.00
2022-10-03T09:26:10.876Z,7408.00
2022-10-03T09:27:10.856Z,6568.00
2022-10-03T09:28:11.070Z,6184.00
2022-10-03T09:29:10.834Z,5788.00
2022-10-03T09:30:10.827Z,5136.00
2022-10-03T09:31:10.866Z,4436.00
2022-10-03T09:32:10.952Z,4820.00
2022-10-03T09:33:10.804Z,5176.00
2022-10-03T09:34:10.785Z,5192.00
2022-10-03T09:35:10.764Z,5076.00
2022-10-03T09:36:10.752Z,4672.00
2022-10-03T09:37:10.751Z,4452.00
2022-10-03T09:38:10.748Z,4600.00
2022-10-03T09:39:10.719Z,4672.00
2022-10-03T09:40:10.707Z,5444.00
2022-10-03T09:41:10.719Z,5404.00
2022-10-03T09:42:10.685Z,4584.00
2022-10-03T09:43:10.697Z,4072.00
2022-10-03T09:44:10.669Z,3900.00
2022-10-03T09:45:10.659Z,3724.00
2022-10-03T09:46:10.683Z,3736.00
2022-10-03T09:47:10.635Z,8720.00
2022-10-03T09:48:10.644Z,10064.00
2022-10-03T09:49:10.615Z,8688.00
2022-10-03T09:50:10.602Z,8964.00
2022-10-03T09:51:10.589Z,10420.00
2022-10-03T09:52:10.572Z,7160.00
2022-10-03T09:53:10.578Z,8184.00
2022-10-03T09:54:10.558Z,7456.00
2022-10-03T09:55:10.539Z,10976.00
2022-10-03T09:56:10.529Z,10700.00
2022-10-03T09:57:10.552Z,10600.00
2022-10-03T09:58:10.515Z,10252.00
2022-10-03T09:59:10.497Z,9732.00
2022-10-03T10:00:10.489Z,7600.00
2022-10-03T10:01:10.509Z,7352.00
2022-10-03T10:02:10.467Z,5444.00
2022-10-03T10:03:10.474Z,7132.00
2022-10-03T10:04:10.556Z,10492.00
2022-10-03T10:05:10.442Z,12020.00
2022-10-03T10:06:10.416Z,9220.00
2022-10-03T10:07:10.406Z,10636.00
2022-10-03T10:08:10.398Z,11360.00
2022-10-03T10:09:10.409Z,10696.00
2022-10-03T10:10:10.382Z,11516.00
2022-10-03T10:11:10.372Z,8828.00
2022-10-03T10:12:10.350Z,8796.00
2022-10-03T10:13:10.363Z,7972.00
2022-10-03T10:14:10.353Z,6540.00
2022-10-03T10:15:10.323Z,8264.00
2022-10-03T10:16:10.347Z,11224.00
2022-10-03T10:17:10.296Z,8204.00
2022-10-03T10:18:10.311Z,9528.00
2022-10-03T10:19:10.300Z,9104.00
2022-10-03T10:20:10.268Z,10236.00
2022-10-03T10:21:10.258Z,13504.00
2022-10-03T10:22:10.266Z,8624.00
2022-10-03T10:23:10.237Z,7992.00
2022-10-03T10:24:10.229Z,5988.00
2022-10-03T10:25:10.207Z,4704.00
2022-10-03T10:26:10.205Z,5100.00
2022-10-03T10:27:10.188Z,4556.00
2022-10-03T10:28:10.272Z,5976.00
2022-10-03T10:29:10.205Z,6600.00
2022-10-03T10:30:10.154Z,4112.00
2022-10-03T10:31:10.213Z,4080.00
2022-10-03T10:32:10.137Z,4780.00
2022-10-03T10:33:10.119Z,9092.00
2022-10-03T10:34:10.122Z,5372.00
2022-10-03T10:35:10.099Z,5604.00
2022-10-03T10:36:10.089Z,10044.00
2022-10-03T10:37:10.871Z,4420.00
2022-10-03T10:38:10.067Z,4164.00
2022-10-03T10:39:10.073Z,4980.00
2022-10-03T10:40:10.044Z,9400.00
2022-10-03T10:41:10.034Z,5128.00
2022-10-03T10:42:10.022Z,3236.00
2022-10-03T10:43:12.562Z,2876.00
2022-10-03T10:44:11.033Z,2680.00
2022-10-03T10:45:10.118Z,2508.00
2022-10-03T10:46:10.014Z,2292.00
2022-10-03T10:47:10.052Z,2180.00
2022-10-03T10:48:09.963Z,2440.00
2022-10-03T10:49:09.945Z,2752.00
2022-10-03T10:50:09.955Z,3104.00
2022-10-03T10:51:09.930Z,3144.00
2022-10-03T10:52:09.911Z,3300.00
2022-10-03T10:53:09.902Z,3160.00
2022-10-03T10:54:09.891Z,2964.00
2022-10-03T10:55:09.892Z,3036.00
2022-10-03T10:56:09.881Z,3364.00
2022-10-03T10:57:09.862Z,3236.00
2022-10-03T10:58:09.854Z,2976.00
2022-10-03T10:59:09.841Z,3008.00
2022-10-03T11:00:09.838Z,4184.00
2022-10-03T11:01:09.921Z,6820.00
2022-10-03T11:02:09.800Z,7024.00
2022-10-03T11:03:09.798Z,8128.00
2022-10-03T11:04:09.820Z,9080.00
2022-10-03T11:05:09.783Z,9388.00
2022-10-03T11:06:09.754Z,9736.00
2022-10-03T11:07:09.753Z,8056.00
2022-10-03T11:08:09.739Z,8596.00
2022-10-03T11:09:09.729Z,9752.00
2022-10-03T11:10:09.715Z,9612.00
2022-10-03T11:11:09.714Z,9420.00
2022-10-03T11:12:09.698Z,6548.00
2022-10-03T11:13:09.686Z,7840.00
2022-10-03T11:14:09.672Z,8176.00
2022-10-03T11:15:09.664Z,9532.00
2022-10-03T11:16:09.707Z,9376.00
2022-10-03T11:17:09.671Z,9088.00
2022-10-03T11:18:09.633Z,9720.00
2022-10-03T11:19:09.627Z,11076.00
2022-10-03T11:20:09.601Z,10332.00
2022-10-03T11:21:09.613Z,8668.00
2022-10-03T11:22:09.587Z,11012.00
2022-10-03T11:23:09.569Z,11508.00
2022-10-03T11:24:09.573Z,11240.00
2022-10-03T11:25:09.553Z,7924.00
2022-10-03T11:26:09.548Z,4260.00
2022-10-03T11:27:09.525Z,3772.00
2022-10-03T11:28:09.581Z,3640.00
2022-10-03T11:29:09.512Z,3468.00
2022-10-03T11:30:09.496Z,3556.00
2022-10-03T11:31:09.523Z,4376.00
2022-10-03T11:32:09.468Z,6844.00
2022-10-03T11:33:09.483Z,7772.00
2022-10-03T11:34:09.455Z,3704.00
2022-10-03T11:35:09.442Z,3128.00
2022-10-03T11:36:09.446Z,3008.00
2022-10-03T11:37:09.425Z,2668.00
2022-10-03T11:38:09.410Z,2608.00
2022-10-03T11:39:09.392Z,2752.00
2022-10-03T11:40:09.385Z,3076.00
2022-10-03T11:41:09.366Z,3404.00
2022-10-03T11:42:09.368Z,3396.00
2022-10-03T11:43:09.344Z,3496.00
2022-10-03T11:44:09.339Z,5072.00
2022-10-03T11:45:09.322Z,4472.00
2022-10-03T11:46:09.370Z,9272.00
2022-10-03T11:47:09.317Z,9272.00
2022-10-03T11:48:09.287Z,10168.00
2022-10-03T11:49:09.310Z,10200.00
2022-10-03T11:50:09.271Z,10448.00
2022-10-03T11:51:09.258Z,10096.00
2022-10-03T11:52:09.264Z,5000.00
2022-10-03T11:53:09.232Z,3684.00
2022-10-03T11:54:29.986Z,3372.00
2022-10-03T11:55:10.212Z,3148.00
2022-10-03T11:56:09.200Z,2924.00
2022-10-03T11:57:09.211Z,3008.00
2022-10-03T11:58:09.177Z,3040.00
2022-10-03T11:59:09.174Z,2960.00
2022-10-03T12:00:09.155Z,2824.00
2022-10-03T12:01:09.150Z,2696.00
2022-10-03T12:02:09.230Z,2612.00
2022-10-03T12:03:09.179Z,2516.00
2022-10-03T12:04:09.111Z,2520.00
2022-10-03T12:05:09.124Z,2552.00
2022-10-03T12:06:09.089Z,2412.00
2022-10-03T12:07:09.077Z,2204.00
2022-10-03T12:08:09.095Z,2120.00
2022-10-03T12:09:09.062Z,2076.00
2022-10-03T12:10:09.046Z,1924.00
2022-10-03T12:11:09.042Z,1864.00
2022-10-03T12:12:09.028Z,1924.00
2022-10-03T12:13:09.029Z,2148.00
2022-10-03T12:14:11.524Z,2288.00
2022-10-03T12:15:08.990Z,2200.00
2022-10-03T12:16:09.051Z,2164.00
2022-10-03T12:17:08.970Z,2204.00
2022-10-03T12:18:08.977Z,3412.00
2022-10-03T12:19:08.955Z,4060.00
2022-10-03T12:20:08.942Z,9456.00
2022-10-03T12:21:08.990Z,6940.00
2022-10-03T12:22:08.912Z,8496.00
2022-10-03T12:23:08.921Z,9256.00
2022-10-03T12:24:08.893Z,8612.00
2022-10-03T12:25:08.886Z,8444.00
2022-10-03T12:26:08.868Z,5620.00
2022-10-03T12:27:08.858Z,4280.00
2022-10-03T12:28:08.932Z,7404.00
2022-10-03T12:29:08.836Z,4932.00
2022-10-03T12:30:08.827Z,7236.00
2022-10-03T12:31:08.813Z,5300.00
2022-10-03T12:32:08.845Z,3504.00
2022-10-03T12:33:08.808Z,6804.00
2022-10-03T12:34:08.793Z,7088.00
2022-10-03T12:35:08.777Z,2892.00
2022-10-03T12:36:08.764Z,2416.00
2022-10-03T12:37:08.780Z,2272.00
2022-10-03T12:38:08.756Z,2408.00
2022-10-03T12:39:08.763Z,2584.00
2022-10-03T12:40:08.713Z,2572.00
2022-10-03T12:41:08.712Z,3880.00
2022-10-03T12:42:08.694Z,6152.00
2022-10-03T12:43:08.703Z,6376.00
2022-10-03T12:44:08.678Z,5956.00
2022-10-03T12:45:08.704Z,3200.00
2022-10-03T12:46:08.711Z,2628.00
2022-10-03T12:47:08.642Z,2660.00
2022-10-03T12:48:08.652Z,2424.00
2022-10-03T12:49:08.639Z,2364.00
2022-10-03T12:50:08.605Z,3672.00
2022-10-03T12:51:08.638Z,3120.00
2022-10-03T12:52:08.585Z,2908.00
2022-10-03T12:53:08.617Z,2500.00
2022-10-03T12:54:08.570Z,2544.00
2022-10-03T12:55:08.558Z,4468.00
2022-10-03T12:56:08.547Z,4676.00
2022-10-03T12:57:08.536Z,8532.00
2022-10-03T12:58:08.541Z,8280.00
2022-10-03T12:59:08.515Z,8188.00
2022-10-03T13:00:08.523Z,8164.00
2022-10-03T13:01:08.575Z,8804.00
2022-10-03T13:02:08.546Z,6732.00
2022-10-03T13:03:08.476Z,3388.00
2022-10-03T13:04:08.458Z,3940.00
2022-10-03T13:05:08.449Z,2644.00
2022-10-03T13:06:08.440Z,2632.00
2022-10-03T13:07:08.428Z,2500.00
2022-10-03T13:08:08.425Z,2472.00
2022-10-03T13:09:08.416Z,2496.00
2022-10-03T13:10:08.387Z,2468.00
2022-10-03T13:11:08.380Z,2524.00
2022-10-03T13:12:08.368Z,2812.00
2022-10-03T13:13:08.374Z,3040.00
2022-10-03T13:14:08.359Z,3208.00
2022-10-03T13:15:08.330Z,3488.00
2022-10-03T13:16:08.382Z,3896.00
2022-10-03T13:17:08.313Z,4228.00
2022-10-03T13:18:08.314Z,3456.00
2022-10-03T13:19:08.294Z,3980.00
2022-10-03T13:20:08.273Z,3620.00
2022-10-03T13:21:26.650Z,5652.00
2022-10-03T13:22:09.259Z,2748.00
2022-10-03T13:23:08.260Z,2524.00
2022-10-03T13:24:08.239Z,2428.00
2022-10-03T13:25:08.239Z,2340.00
2022-10-03T13:26:11.825Z,2428.00
2022-10-03T13:27:09.198Z,2568.00
2022-10-03T13:28:08.297Z,2416.00
2022-10-03T13:29:08.178Z,2376.00
2022-10-03T13:30:08.175Z,2336.00
2022-10-03T13:31:08.257Z,2288.00
2022-10-03T13:32:08.153Z,2228.00
2022-10-03T13:33:08.152Z,2192.00
2022-10-03T13:34:08.124Z,2228.00
2022-10-03T13:35:08.113Z,2300.00
2022-10-03T13:36:08.113Z,2276.00
2022-10-03T13:37:08.096Z,2144.00
2022-10-03T13:38:08.093Z,2064.00
2022-10-03T13:39:08.125Z,2020.00
2022-10-03T13:40:08.205Z,1912.00
2022-10-03T13:41:08.072Z,1864.00
2022-10-03T13:42:08.041Z,1884.00
2022-10-03T13:43:08.050Z,1852.00
2022-10-03T13:44:08.014Z,1840.00
2022-10-03T13:45:08.009Z,1896.00
2022-10-03T13:46:08.122Z,1952.00
2022-10-03T13:47:07.986Z,1940.00
2022-10-03T13:48:07.983Z,2016.00
2022-10-03T13:49:07.958Z,1864.00
2022-10-03T13:50:08.041Z,1812.00
2022-10-03T13:51:07.933Z,2056.00
2022-10-03T13:52:07.929Z,1920.00
2022-10-03T13:53:08.023Z,1848.00
2022-10-03T13:54:07.914Z,1868.00
2022-10-03T13:55:07.910Z,1896.00
2022-10-03T13:56:07.888Z,1968.00
2022-10-03T13:57:07.908Z,2720.00
2022-10-03T13:58:07.858Z,4124.00
2022-10-03T13:59:07.864Z,4368.00
2022-10-03T14:00:07.942Z,4408.00
2022-10-03T14:01:07.941Z,4020.00
2022-10-03T14:02:07.906Z,4072.00
2022-10-03T14:03:07.801Z,4132.00
2022-10-03T14:04:07.817Z,4244.00
2022-10-03T14:05:07.779Z,4280.00
2022-10-03T14:06:07.773Z,3720.00
2022-10-03T14:07:07.762Z,3496.00
2022-10-03T14:08:07.745Z,2904.00
2022-10-03T14:09:07.749Z,3140.00
2022-10-03T14:10:07.810Z,3692.00
2022-10-03T14:11:07.721Z,2348.00
2022-10-03T14:12:07.709Z,2656.00
2022-10-03T14:13:07.716Z,3932.00
2022-10-03T14:14:07.706Z,3888.00
2022-10-03T14:15:07.668Z,2632.00
2022-10-03T14:16:07.739Z,2752.00
2022-10-03T14:17:07.653Z,2680.00
2022-10-03T14:18:07.641Z,3812.00
2022-10-03T14:19:07.624Z,4228.00
2022-10-03T14:20:07.759Z,4460.00
2022-10-03T14:21:07.612Z,4536.00
2022-10-03T14:22:07.592Z,4836.00
2022-10-03T14:23:07.583Z,4828.00
2022-10-03T14:24:07.569Z,4652.00
2022-10-03T14:25:07.579Z,4736.00
2022-10-03T14:26:07.548Z,4592.00
2022-10-03T14:27:07.553Z,4452.00
2022-10-03T14:28:07.674Z,4328.00
2022-10-03T14:29:07.547Z,4232.00
2022-10-03T14:30:07.593Z,4224.00
2022-10-03T14:31:07.740Z,3980.00
2022-10-03T14:32:22.592Z,3968.00
2022-10-03T14:33:08.468Z,4112.00
2022-10-03T14:34:07.473Z,4364.00
2022-10-03T14:35:07.466Z,4740.00
2022-10-03T14:36:07.437Z,5256.00
2022-10-03T14:37:07.427Z,5812.00
2022-10-03T14:38:07.419Z,5740.00
2022-10-03T14:39:07.423Z,6012.00
2022-10-03T14:40:07.448Z,5800.00
2022-10-03T14:41:07.381Z,5632.00
2022-10-03T14:42:07.372Z,5300.00
2022-10-03T14:43:07.360Z,4260.00
2022-10-03T14:44:12.901Z,4408.00
2022-10-03T14:45:08.391Z,4296.00
2022-10-03T14:46:07.375Z,4052.00
2022-10-03T14:47:07.325Z,3972.00
2022-10-03T14:48:07.305Z,3956.00
2022-10-03T14:49:17.155Z,3828.00
2022-10-03T14:50:08.307Z,3684.00
2022-10-03T14:51:07.271Z,3548.00
2022-10-03T14:52:07.270Z,3060.00
2022-10-03T14:53:07.987Z,2756.00
2022-10-03T14:54:07.247Z,2604.00
2022-10-03T14:55:07.360Z,2568.00
2022-10-03T14:56:07.216Z,2556.00
2022-10-03T14:57:07.219Z,2408.00
2022-10-03T14:58:11.761Z,2276.00
2022-10-03T14:59:07.190Z,2068.00
2022-10-03T15:00:07.182Z,1804.00
2022-10-03T15:01:07.200Z,1652.00
2022-10-03T15:02:07.251Z,1536.00
2022-10-03T15:03:07.222Z,1432.00
2022-10-03T15:04:07.138Z,1340.00
2022-10-03T15:05:07.123Z,1360.00
2022-10-03T15:06:07.131Z,1344.00
2022-10-03T15:07:07.096Z,1348.00
2022-10-03T15:08:07.094Z,1372.00
2022-10-03T15:09:07.072Z,1332.00
2022-10-03T15:10:07.094Z,1328.00
2022-10-03T15:11:07.078Z,1364.00
2022-10-03T15:12:07.055Z,1392.00
2022-10-03T15:13:07.032Z,1384.00
2022-10-03T15:14:07.027Z,1364.00
2022-10-03T15:15:07.008Z,1352.00
2022-10-03T15:16:07.071Z,1344.00
2022-10-03T15:17:07.014Z,1340.00
2022-10-03T15:18:06.973Z,1348.00
2022-10-03T15:19:07.493Z,1364.00
2022-10-03T15:20:06.984Z,1372.00
2022-10-03T15:21:06.940Z,1368.00
2022-10-03T15:22:06.942Z,1392.00
2022-10-03T15:23:06.924Z,1404.00
2022-10-03T15:24:06.913Z,1396.00
2022-10-03T15:25:06.901Z,1380.00
2022-10-03T15:26:06.888Z,1332.00
2022-10-03T15:27:07.051Z,1276.00
2022-10-03T15:28:06.913Z,1224.00
2022-10-03T15:29:06.857Z,1204.00
2022-10-03T15:30:06.851Z,1172.00